Time;durP1;ratioP1;P1;durP2;ratioP2;P2;SDS_P1;SDS_P2;PMS_P1;PMS_P2;Temp;Humidity;BMP_temperature;BMP_pressure;BME280_temperature;BME280_humidity;BME280_pressure;Samples;Min_cycle;Max_cycle;Signal;HPM_P1;HPM_P2
2023/06/25 00:01:39;;;;;;;12.77;7.28;;;;;;;;;;5072013;28;20238;-59
2023/06/25 00:04:04;;;;;;;11.02;7.88;;;;;;;;;;5070584;28;20727;-60
2023/06/25 00:06:30;;;;;;;13.20;8.00;;;;;;;;;;5071955;28;20222;-60
2023/06/25 00:08:55;;;;;;;10.25;7.63;;;;;;;;;;5061496;28;20206;-59
2023/06/25 00:11:20;;;;;;;14.13;8.40;;;;;;;;;;5071665;28;20534;-60
2023/06/25 00:13:46;;;;;;;10.85;8.60;;;;;;;;;;5071971;28;20619;-59
2023/06/25 00:16:11;;;;;;;11.77;8.38;;;;;;;;;;5055042;28;20557;-60
2023/06/25 00:18:36;;;;;;;12.73;8.45;;;;;;;;;;5051774;28;20207;-60
2023/06/25 00:21:03;;;;;;;9.95;8.43;;;;;;;;;;5051435;28;20314;-60
2023/06/25 00:23:28;;;;;;;10.73;8.02;;;;;;;;;;5050810;28;20219;-59
2023/06/25 00:25:53;;;;;;;13.35;8.13;;;;;;;;;;5051750;28;20219;-59
2023/06/25 00:28:19;;;;;;;13.95;8.15;;;;;;;;;;5051269;28;20211;-60
2023/06/25 00:30:44;;;;;;;12.95;9.02;;;;;;;;;;5070297;28;20267;-59
2023/06/25 00:33:10;;;;;;;11.95;8.57;;;;;;;;;;5071150;28;20700;-60
2023/06/25 00:35:42;;;;;;;13.70;8.90;;;;;;;;;;5071702;28;20218;-60
2023/06/25 00:38:07;;;;;;;11.07;8.35;;;;;;;;;;5070346;28;20206;-60
2023/06/25 00:40:32;;;;;;;12.65;8.48;;;;;;;;;;5071660;28;20225;-59
2023/06/25 00:42:58;;;;;;;13.15;8.57;;;;;;;;;;5071467;28;20206;-59
2023/06/25 00:45:24;;;;;;;11.23;8.35;;;;;;;;;;5070060;28;20230;-59
2023/06/25 00:47:50;;;;;;;11.40;8.85;;;;;;;;;;5053798;28;20241;-59
2023/06/25 00:50:15;;;;;;;13.60;8.60;;;;;;;;;;5053182;28;20203;-59
2023/06/25 00:52:41;;;;;;;12.75;8.02;;;;;;;;;;5070664;28;20206;-60
2023/06/25 00:55:08;;;;;;;11.70;8.60;;;;;;;;;;5066971;28;20211;-60
2023/06/25 00:57:33;;;;;;;13.70;8.52;;;;;;;;;;5047361;28;20572;-60
2023/06/25 00:59:59;;;;;;;11.00;8.50;;;;;;;;;;5040488;28;20257;-60
2023/06/25 01:02:26;;;;;;;12.23;8.90;;;;;;;;;;5041329;28;20226;-60
2023/06/25 01:04:57;;;;;;;14.95;9.77;;;;;;;;;;5046850;28;20669;-60
2023/06/25 01:07:25;;;;;;;14.10;9.35;;;;;;;;;;5045871;28;20218;-60
2023/06/25 01:09:50;;;;;;;13.55;9.00;;;;;;;;;;5045308;28;20216;-60
2023/06/25 01:12:15;;;;;;;15.45;9.57;;;;;;;;;;5040242;28;20672;-60
2023/06/25 01:14:41;;;;;;;14.95;9.27;;;;;;;;;;5041702;28;20816;-60
2023/06/25 01:17:06;;;;;;;14.23;9.70;;;;;;;;;;5055224;28;20209;-60
2023/06/25 01:19:32;;;;;;;15.43;10.02;;;;;;;;;;5059259;28;20223;-60
2023/06/25 01:21:57;;;;;;;12.13;9.55;;;;;;;;;;5064225;28;20377;-60
2023/06/25 01:24:23;;;;;;;13.98;10.20;;;;;;;;;;5063655;28;20242;-59
2023/06/25 01:26:51;;;;;;;12.20;8.60;;;;;;;;;;5063745;28;20210;-60
2023/06/25 01:29:16;;;;;;;14.52;10.55;;;;;;;;;;5063893;28;20222;-60
2023/06/25 01:31:42;;;;;;;13.20;9.48;;;;;;;;;;5057429;28;20223;-59
2023/06/25 01:34:07;;;;;;;13.15;9.60;;;;;;;;;;5042011;28;20281;-60
2023/06/25 01:36:39;;;;;;;11.88;8.50;;;;;;;;;;5037013;28;20298;-60
2023/06/25 01:39:06;;;;;;;11.50;9.57;;;;;;;;;;5036976;28;20630;-60
2023/06/25 01:41:32;;;;;;;13.85;9.65;;;;;;;;;;5056992;28;20301;-59
2023/06/25 01:43:57;;;;;;;13.40;9.07;;;;;;;;;;5064056;28;20368;-60
2023/06/25 01:46:22;;;;;;;12.85;9.55;;;;;;;;;;5063685;28;20301;-60
2023/06/25 01:48:48;;;;;;;12.13;10.15;;;;;;;;;;5063036;28;20219;-60
2023/06/25 01:51:13;;;;;;;12.65;9.57;;;;;;;;;;5063692;28;20221;-60
2023/06/25 01:53:38;;;;;;;12.80;10.00;;;;;;;;;;5063876;28;20222;-60
2023/06/25 01:56:04;;;;;;;15.07;10.73;;;;;;;;;;5051331;28;20707;-59
2023/06/25 01:58:29;;;;;;;14.48;10.20;;;;;;;;;;5045792;28;20280;-60
2023/06/25 02:00:54;;;;;;;12.80;10.23;;;;;;;;;;5069711;28;20681;-60
2023/06/25 02:03:20;;;;;;;13.98;10.65;;;;;;;;;;5072566;28;20237;-60
2023/06/25 02:05:45;;;;;;;14.88;9.77;;;;;;;;;;5067234;28;20234;-60
2023/06/25 02:08:11;;;;;;;12.20;9.43;;;;;;;;;;5057761;28;20199;-59
2023/06/25 02:10:36;;;;;;;16.88;10.60;;;;;;;;;;5073489;28;20218;-60
2023/06/25 02:13:01;;;;;;;13.90;10.55;;;;;;;;;;5073259;28;20214;-60
2023/06/25 02:15:27;;;;;;;14.98;9.55;;;;;;;;;;5064653;28;20226;-60
2023/06/25 02:17:52;;;;;;;13.32;10.18;;;;;;;;;;5053191;28;20616;-59
2023/06/25 02:20:19;;;;;;;13.02;9.82;;;;;;;;;;5040990;28;20223;-60
2023/06/25 02:22:44;;;;;;;12.55;9.77;;;;;;;;;;5035734;28;20306;-60
2023/06/25 02:25:09;;;;;;;13.98;10.27;;;;;;;;;;5056683;28;20222;-60
2023/06/25 02:27:35;;;;;;;11.98;10.15;;;;;;;;;;5063584;28;20309;-60
2023/06/25 02:30:00;;;;;;;13.88;11.40;;;;;;;;;;5062031;28;20309;-60
2023/06/25 02:32:26;;;;;;;14.70;11.05;;;;;;;;;;5063704;28;20213;-60
2023/06/25 02:34:51;;;;;;;13.13;10.55;;;;;;;;;;5050801;28;20664;-60
2023/06/25 02:37:16;;;;;;;13.07;10.60;;;;;;;;;;5044257;28;20648;-60
2023/06/25 02:39:42;;;;;;;14.65;10.02;;;;;;;;;;5063186;28;20225;-60
2023/06/25 02:42:07;;;;;;;13.20;10.10;;;;;;;;;;5055150;28;20225;-60
2023/06/25 02:44:33;;;;;;;13.15;10.23;;;;;;;;;;5054308;28;20276;-60
2023/06/25 02:46:58;;;;;;;14.48;11.20;;;;;;;;;;5055950;28;20661;-61
2023/06/25 02:49:24;;;;;;;16.05;10.35;;;;;;;;;;5061704;28;20221;-61
2023/06/25 02:51:49;;;;;;;16.20;10.93;;;;;;;;;;5062168;28;20218;-60
2023/06/25 02:54:14;;;;;;;14.82;10.98;;;;;;;;;;5062312;28;20230;-60
2023/06/25 02:56:40;;;;;;;14.77;10.75;;;;;;;;;;5046420;28;20650;-60
2023/06/25 02:59:05;;;;;;;17.63;12.10;;;;;;;;;;5042346;28;20223;-60
2023/06/25 03:01:30;;;;;;;15.80;10.93;;;;;;;;;;5043393;28;20666;-60
2023/06/25 03:03:56;;;;;;;14.50;11.02;;;;;;;;;;5056891;28;20754;-60
2023/06/25 03:06:21;;;;;;;13.65;10.73;;;;;;;;;;5042048;28;20207;-60
2023/06/25 03:08:46;;;;;;;14.82;11.20;;;;;;;;;;5035784;28;20238;-60
2023/06/25 03:11:12;;;;;;;14.48;11.25;;;;;;;;;;5039782;28;20291;-60
2023/06/25 03:13:37;;;;;;;14.70;10.70;;;;;;;;;;5042313;28;20684;-60
2023/06/25 03:16:02;;;;;;;16.50;13.57;;;;;;;;;;5042283;28;21487;-60
2023/06/25 03:18:28;;;;;;;16.35;11.63;;;;;;;;;;5043123;28;20211;-60
2023/06/25 03:20:53;;;;;;;15.20;11.98;;;;;;;;;;5041888;28;20219;-60
2023/06/25 03:23:18;;;;;;;17.83;10.55;;;;;;;;;;5042606;28;20218;-60
2023/06/25 03:25:44;;;;;;;14.45;11.20;;;;;;;;;;5040391;28;20272;-60
2023/06/25 03:28:09;;;;;;;14.60;11.15;;;;;;;;;;5052928;28;20839;-60
2023/06/25 03:30:34;;;;;;;13.23;10.27;;;;;;;;;;5054285;28;20769;-60
2023/06/25 03:33:00;;;;;;;16.52;10.80;;;;;;;;;;5055743;28;20207;-60
2023/06/25 03:35:25;;;;;;;13.40;11.20;;;;;;;;;;5044706;28;20222;-60
2023/06/25 03:37:50;;;;;;;14.70;11.63;;;;;;;;;;5042564;28;20693;-60
2023/06/25 03:40:16;;;;;;;15.38;11.57;;;;;;;;;;5041038;28;20649;-60
2023/06/25 03:42:41;;;;;;;15.80;11.02;;;;;;;;;;5042373;28;20638;-60
2023/06/25 03:45:08;;;;;;;15.98;11.18;;;;;;;;;;5061209;28;20785;-60
2023/06/25 03:47:33;;;;;;;13.25;10.93;;;;;;;;;;5061146;28;20206;-60
2023/06/25 03:49:58;;;;;;;13.82;11.10;;;;;;;;;;5054358;28;20244;-60
2023/06/25 03:52:24;;;;;;;13.40;10.70;;;;;;;;;;5053259;28;20215;-60
2023/06/25 03:54:49;;;;;;;12.13;10.80;;;;;;;;;;5052079;28;20344;-60
2023/06/25 03:57:14;;;;;;;18.25;12.38;;;;;;;;;;5041690;28;20217;-60
2023/06/25 03:59:40;;;;;;;14.23;11.13;;;;;;;;;;5041998;28;20217;-60
2023/06/25 04:02:05;;;;;;;14.65;11.38;;;;;;;;;;5041382;28;20309;-60
2023/06/25 04:04:30;;;;;;;13.48;11.55;;;;;;;;;;5041669;28;20238;-60
2023/06/25 04:06:56;;;;;;;14.55;11.00;;;;;;;;;;5042314;28;20265;-60
2023/06/25 04:09:21;;;;;;;14.07;11.93;;;;;;;;;;5040898;28;20662;-60
2023/06/25 04:11:46;;;;;;;17.13;12.20;;;;;;;;;;5056717;28;20214;-60
2023/06/25 04:14:12;;;;;;;15.23;12.90;;;;;;;;;;5052453;28;20211;-60
2023/06/25 04:16:37;;;;;;;16.20;12.27;;;;;;;;;;5034479;28;20207;-60
2023/06/25 04:19:02;;;;;;;14.65;12.27;;;;;;;;;;5038548;28;20218;-60
2023/06/25 04:21:28;;;;;;;15.73;12.55;;;;;;;;;;5041759;28;20207;-60
2023/06/25 04:23:54;;;;;;;15.70;11.95;;;;;;;;;;5040996;28;20211;-60
2023/06/25 04:26:19;;;;;;;13.55;11.32;;;;;;;;;;5041317;28;20290;-60
2023/06/25 04:28:45;;;;;;;17.10;11.73;;;;;;;;;;5042042;28;20301;-60
2023/06/25 04:31:10;;;;;;;15.38;12.38;;;;;;;;;;5040520;28;20608;-60
2023/06/25 04:33:41;;;;;;;17.65;12.70;;;;;;;;;;5039798;28;20207;-60
2023/06/25 04:36:06;;;;;;;14.43;12.15;;;;;;;;;;5056501;28;20674;-60
2023/06/25 04:38:33;;;;;;;17.05;13.73;;;;;;;;;;5037400;28;20221;-60
2023/06/25 04:40:58;;;;;;;17.95;13.45;;;;;;;;;;5057805;28;20700;-60
2023/06/25 04:43:24;;;;;;;16.73;12.63;;;;;;;;;;5064525;28;20244;-60
2023/06/25 04:45:49;;;;;;;15.13;12.18;;;;;;;;;;5064833;28;20314;-60
2023/06/25 04:48:14;;;;;;;17.40;13.60;;;;;;;;;;5065239;28;20743;-61
2023/06/25 04:50:39;;;;;;;18.40;12.40;;;;;;;;;;5064410;28;20257;-61
2023/06/25 04:53:05;;;;;;;16.63;11.10;;;;;;;;;;5054495;28;20250;-61
2023/06/25 04:55:30;;;;;;;14.63;12.13;;;;;;;;;;5044719;28;20478;-61
2023/06/25 04:57:56;;;;;;;16.05;12.70;;;;;;;;;;5039185;28;20207;-61
2023/06/25 05:00:21;;;;;;;17.15;13.38;;;;;;;;;;5036787;28;20631;-61
2023/06/25 05:02:46;;;;;;;18.10;13.63;;;;;;;;;;5036864;28;20269;-61
2023/06/25 05:05:12;;;;;;;16.30;12.73;;;;;;;;;;5041573;28;20223;-61
2023/06/25 05:07:37;;;;;;;14.30;12.03;;;;;;;;;;5044804;28;20569;-60
2023/06/25 05:10:03;;;;;;;15.82;12.52;;;;;;;;;;5029601;28;20492;-60
2023/06/25 05:12:29;;;;;;;15.60;12.75;;;;;;;;;;5044522;28;20262;-61
2023/06/25 05:14:55;;;;;;;17.15;12.27;;;;;;;;;;5045497;28;20207;-60
2023/06/25 05:17:20;;;;;;;14.23;11.77;;;;;;;;;;5044583;28;20221;-60
2023/06/25 05:19:45;;;;;;;15.80;12.68;;;;;;;;;;5040441;28;20222;-61
2023/06/25 05:22:11;;;;;;;14.32;12.50;;;;;;;;;;5036185;28;20365;-60
2023/06/25 05:24:36;;;;;;;17.65;13.63;;;;;;;;;;5037022;28;20685;-60
2023/06/25 05:27:02;;;;;;;14.85;13.02;;;;;;;;;;5039556;28;20215;-60
2023/06/25 05:29:27;;;;;;;14.13;12.63;;;;;;;;;;5063916;28;20653;-60
2023/06/25 05:31:53;;;;;;;14.82;12.55;;;;;;;;;;5064722;28;20648;-61
2023/06/25 05:34:18;;;;;;;17.30;13.57;;;;;;;;;;5055100;28;20223;-60
2023/06/25 05:36:44;;;;;;;15.20;13.27;;;;;;;;;;5044808;28;20306;-60
2023/06/25 05:39:09;;;;;;;15.70;13.93;;;;;;;;;;5064639;28;20230;-60
2023/06/25 05:41:41;;;;;;;15.63;13.55;;;;;;;;;;5068521;28;20688;-61
2023/06/25 05:44:06;;;;;;;16.05;13.50;;;;;;;;;;5064088;28;20211;-60
2023/06/25 05:46:31;;;;;;;15.50;13.20;;;;;;;;;;5065057;28;20210;-61
2023/06/25 05:48:57;;;;;;;17.30;13.70;;;;;;;;;;5073864;28;20214;-61
2023/06/25 05:51:22;;;;;;;18.38;12.85;;;;;;;;;;5073805;28;20210;-61
2023/06/25 05:53:50;;;;;;;14.55;12.73;;;;;;;;;;5073747;28;20222;-61
2023/06/25 05:56:16;;;;;;;15.73;13.90;;;;;;;;;;5060497;28;20674;-61
2023/06/25 05:58:41;;;;;;;19.10;14.43;;;;;;;;;;5036686;28;20218;-61
2023/06/25 06:01:06;;;;;;;15.65;13.65;;;;;;;;;;5052733;28;20285;-61
2023/06/25 06:03:32;;;;;;;18.17;14.60;;;;;;;;;;5054275;28;20630;-61
2023/06/25 06:05:57;;;;;;;16.90;13.63;;;;;;;;;;5053916;28;20223;-61
2023/06/25 06:08:23;;;;;;;17.30;13.63;;;;;;;;;;5058343;28;20690;-60
2023/06/25 06:10:48;;;;;;;16.75;13.75;;;;;;;;;;5065306;28;20214;-61
2023/06/25 06:13:14;;;;;;;16.38;14.38;;;;;;;;;;5063527;28;20198;-61
2023/06/25 06:15:39;;;;;;;16.73;13.43;;;;;;;;;;5063114;28;20210;-61
2023/06/25 06:18:05;;;;;;;16.85;13.73;;;;;;;;;;5061404;28;20206;-61
2023/06/25 06:20:30;;;;;;;16.33;14.45;;;;;;;;;;5062848;28;20207;-61
2023/06/25 06:22:57;;;;;;;17.60;14.07;;;;;;;;;;5062512;28;20207;-61
2023/06/25 06:25:23;;;;;;;16.85;13.48;;;;;;;;;;5056129;28;20211;-61
2023/06/25 06:27:48;;;;;;;16.50;14.68;;;;;;;;;;5060162;28;20585;-61
2023/06/25 06:30:13;;;;;;;15.10;12.98;;;;;;;;;;5071580;28;20222;-61
2023/06/25 06:32:39;;;;;;;16.75;14.95;;;;;;;;;;5069709;28;20225;-61
2023/06/25 06:35:04;;;;;;;16.50;13.63;;;;;;;;;;5065918;28;20240;-61
2023/06/25 06:37:31;;;;;;;16.92;13.43;;;;;;;;;;5071454;28;20206;-61
2023/06/25 06:39:57;;;;;;;15.18;13.20;;;;;;;;;;5059750;28;20754;-61
2023/06/25 06:42:22;;;;;;;17.35;13.77;;;;;;;;;;5059277;28;20249;-61
2023/06/25 06:44:47;;;;;;;15.65;13.93;;;;;;;;;;5067251;28;20223;-61
2023/06/25 06:47:13;;;;;;;19.02;13.63;;;;;;;;;;5071810;28;20268;-61
2023/06/25 06:49:38;;;;;;;17.08;13.82;;;;;;;;;;5064123;28;20213;-61
2023/06/25 06:52:04;;;;;;;17.00;14.68;;;;;;;;;;5061003;28;20543;-62
2023/06/25 06:54:29;;;;;;;15.85;13.20;;;;;;;;;;5063684;28;20297;-61
2023/06/25 06:56:54;;;;;;;15.45;12.95;;;;;;;;;;5053850;28;20766;-61
2023/06/25 06:59:20;;;;;;;16.98;13.38;;;;;;;;;;5052826;28;20215;-61
2023/06/25 07:01:45;;;;;;;16.30;13.13;;;;;;;;;;5052931;28;20215;-61
2023/06/25 07:04:10;;;;;;;16.88;13.23;;;;;;;;;;5051758;28;20263;-61
2023/06/25 07:06:36;;;;;;;17.30;13.55;;;;;;;;;;5053008;28;20215;-61
2023/06/25 07:09:01;;;;;;;16.13;13.38;;;;;;;;;;5061580;28;20302;-61
2023/06/25 07:11:27;;;;;;;16.58;12.63;;;;;;;;;;5072296;28;20213;-61
2023/06/25 07:13:52;;;;;;;15.80;12.90;;;;;;;;;;5073129;28;20578;-61
2023/06/25 07:16:18;;;;;;;14.88;12.18;;;;;;;;;;5056048;28;20807;-61
2023/06/25 07:18:43;;;;;;;16.60;13.02;;;;;;;;;;5051957;28;20230;-61
2023/06/25 07:21:09;;;;;;;15.65;13.40;;;;;;;;;;5052494;28;20730;-61
2023/06/25 07:23:35;;;;;;;16.83;12.60;;;;;;;;;;5052580;28;20293;-61
2023/06/25 07:26:00;;;;;;;15.40;12.07;;;;;;;;;;5052032;28;20265;-61
2023/06/25 07:28:26;;;;;;;15.55;12.70;;;;;;;;;;5034517;28;20215;-61
2023/06/25 07:30:51;;;;;;;14.63;12.05;;;;;;;;;;5052712;28;20257;-61
2023/06/25 07:33:16;;;;;;;16.40;11.38;;;;;;;;;;5051240;28;20674;-61
2023/06/25 07:35:42;;;;;;;16.40;12.27;;;;;;;;;;5052486;28;20229;-61
2023/06/25 07:38:07;;;;;;;16.15;13.18;;;;;;;;;;5052041;28;20589;-61
2023/06/25 07:40:32;;;;;;;14.20;12.70;;;;;;;;;;5051908;28;20640;-61
2023/06/25 07:42:58;;;;;;;14.32;12.35;;;;;;;;;;5052505;28;20246;-61
2023/06/25 07:45:23;;;;;;;14.10;11.90;;;;;;;;;;5052019;28;20254;-61
2023/06/25 07:47:49;;;;;;;13.80;11.63;;;;;;;;;;5051437;28;20222;-61
2023/06/25 07:50:14;;;;;;;17.33;11.60;;;;;;;;;;5051948;28;20297;-61
2023/06/25 07:52:39;;;;;;;15.40;11.77;;;;;;;;;;5067285;28;20247;-61
2023/06/25 07:55:05;;;;;;;14.65;12.50;;;;;;;;;;5067387;28;20215;-61
2023/06/25 07:57:30;;;;;;;14.68;11.00;;;;;;;;;;5052294;28;20222;-61
2023/06/25 07:59:56;;;;;;;13.68;11.40;;;;;;;;;;5052226;28;20290;-61
2023/06/25 08:02:21;;;;;;;16.90;12.10;;;;;;;;;;5050713;28;20215;-61
2023/06/25 08:04:46;;;;;;;13.32;11.93;;;;;;;;;;5051818;28;20305;-61
2023/06/25 08:07:12;;;;;;;15.18;11.77;;;;;;;;;;5050773;28;20218;-62
2023/06/25 08:09:37;;;;;;;13.55;12.15;;;;;;;;;;5066347;28;20218;-62
2023/06/25 08:12:03;;;;;;;13.70;10.70;;;;;;;;;;5071200;28;20225;-62
2023/06/25 08:14:28;;;;;;;15.32;11.48;;;;;;;;;;5069972;28;20217;-62
2023/06/25 08:16:53;;;;;;;14.25;11.98;;;;;;;;;;5052088;28;20230;-62
2023/06/25 08:19:19;;;;;;;14.32;12.27;;;;;;;;;;5051100;28;20239;-61
2023/06/25 08:21:44;;;;;;;21.60;12.00;;;;;;;;;;5051354;28;20678;-62
2023/06/25 08:24:10;;;;;;;13.73;11.35;;;;;;;;;;5051209;28;20573;-61
2023/06/25 08:26:35;;;;;;;17.30;10.63;;;;;;;;;;5051875;28;20211;-62
2023/06/25 08:29:00;;;;;;;16.65;11.13;;;;;;;;;;5050719;28;20574;-62
2023/06/25 08:31:26;;;;;;;14.40;10.90;;;;;;;;;;5051951;28;20207;-61
2023/06/25 08:33:52;;;;;;;9.60;7.95;;;;;;;;;;5051596;28;20207;-62
2023/06/25 08:36:17;;;;;;;13.00;11.38;;;;;;;;;;5050658;28;20211;-61
2023/06/25 08:38:42;;;;;;;12.82;10.45;;;;;;;;;;5051833;28;20749;-61
2023/06/25 08:41:08;;;;;;;11.35;9.90;;;;;;;;;;5051368;28;20272;-62
2023/06/25 08:43:33;;;;;;;13.07;10.52;;;;;;;;;;5050977;28;20260;-62
2023/06/25 08:45:58;;;;;;;12.25;9.68;;;;;;;;;;5033958;28;20254;-61
2023/06/25 08:48:24;;;;;;;10.68;8.70;;;;;;;;;;5051206;28;20681;-61
2023/06/25 08:50:51;;;;;;;12.50;9.50;;;;;;;;;;5033213;28;20273;-61
2023/06/25 08:53:16;;;;;;;12.88;8.98;;;;;;;;;;5051240;28;20203;-61
2023/06/25 08:55:41;;;;;;;14.52;9.57;;;;;;;;;;5060009;28;20627;-61
2023/06/25 08:58:07;;;;;;;10.98;8.38;;;;;;;;;;5070312;28;20221;-61
2023/06/25 09:00:32;;;;;;;9.60;8.07;;;;;;;;;;5071707;28;20229;-61
2023/06/25 09:02:57;;;;;;;13.98;9.93;;;;;;;;;;5071475;28;20231;-61
2023/06/25 09:05:24;;;;;;;10.10;8.57;;;;;;;;;;5069999;28;20701;-61
2023/06/25 09:07:49;;;;;;;12.52;9.68;;;;;;;;;;5071711;28;20207;-61
2023/06/25 09:10:16;;;;;;;13.05;9.38;;;;;;;;;;5051683;28;20238;-61
2023/06/25 09:12:44;;;;;;;10.65;8.55;;;;;;;;;;5050622;28;20235;-61
2023/06/25 09:15:09;;;;;;;10.38;8.43;;;;;;;;;;5051048;28;20214;-61
2023/06/25 09:17:36;;;;;;;12.98;9.25;;;;;;;;;;5050785;28;20286;-61
2023/06/25 09:20:04;;;;;;;8.82;6.90;;;;;;;;;;5057149;28;20202;-61
2023/06/25 09:22:30;;;;;;;12.50;8.85;;;;;;;;;;5066606;28;20357;-61
2023/06/25 09:24:55;;;;;;;9.65;8.40;;;;;;;;;;5073130;28;20734;-61
2023/06/25 09:27:20;;;;;;;11.50;8.57;;;;;;;;;;5055325;28;20213;-61
2023/06/25 09:29:46;;;;;;;11.20;6.97;;;;;;;;;;5054827;28;20214;-61
2023/06/25 09:32:11;;;;;;;9.80;7.55;;;;;;;;;;5059371;28;20306;-61
2023/06/25 09:34:37;;;;;;;9.95;7.65;;;;;;;;;;5047505;28;20242;-61
2023/06/25 09:37:03;;;;;;;10.55;7.47;;;;;;;;;;5037770;28;20288;-61
2023/06/25 09:39:29;;;;;;;13.07;7.57;;;;;;;;;;5041539;28;20525;-61
2023/06/25 09:41:54;;;;;;;11.50;8.00;;;;;;;;;;5056893;28;20215;-61
2023/06/25 09:44:20;;;;;;;8.90;6.13;;;;;;;;;;5049424;28;20250;-61
2023/06/25 09:46:45;;;;;;;12.52;7.63;;;;;;;;;;5049260;28;20259;-61
2023/06/25 09:49:10;;;;;;;10.80;6.35;;;;;;;;;;5067488;28;20218;-61
2023/06/25 09:51:36;;;;;;;9.90;6.28;;;;;;;;;;5032184;28;20261;-61
2023/06/25 09:54:02;;;;;;;9.00;7.32;;;;;;;;;;5047068;28;20804;-61
2023/06/25 09:56:28;;;;;;;8.40;5.90;;;;;;;;;;5042765;28;20215;-61
2023/06/25 09:58:53;;;;;;;9.27;5.80;;;;;;;;;;5039088;28;20307;-61
2023/06/25 10:01:18;;;;;;;9.63;6.70;;;;;;;;;;5040199;28;20292;-61
2023/06/25 10:03:44;;;;;;;10.32;7.22;;;;;;;;;;5045451;28;20235;-61
2023/06/25 10:06:09;;;;;;;7.75;5.90;;;;;;;;;;5047846;28;20353;-61
2023/06/25 10:08:36;;;;;;;10.23;8.20;;;;;;;;;;5060013;28;20245;-61
2023/06/25 10:11:03;;;;;;;9.43;6.88;;;;;;;;;;5047875;28;20226;-61
2023/06/25 10:13:29;;;;;;;7.57;5.60;;;;;;;;;;5045357;28;20317;-61
2023/06/25 10:15:58;;;;;;;12.82;7.43;;;;;;;;;;5046169;28;20211;-61
2023/06/25 10:18:23;;;;;;;8.60;6.10;;;;;;;;;;5043331;28;20207;-61
2023/06/25 10:20:49;;;;;;;9.98;6.72;;;;;;;;;;5039203;28;20226;-61
2023/06/25 10:23:19;;;;;;;7.47;6.35;;;;;;;;;;5039980;28;20306;-60
2023/06/25 10:25:55;;;;;;;13.82;7.20;;;;;;;;;;5043631;28;20292;-61
2023/06/25 10:28:26;;;;;;;11.43;6.88;;;;;;;;;;5046818;28;22914;-61
2023/06/25 10:30:52;;;;;;;8.73;7.30;;;;;;;;;;5046120;28;20217;-61
2023/06/25 10:33:17;;;;;;;9.02;6.82;;;;;;;;;;5058681;28;20219;-61
2023/06/25 10:35:43;;;;;;;9.00;6.88;;;;;;;;;;5072158;28;20207;-61
2023/06/25 10:38:08;;;;;;;8.75;7.03;;;;;;;;;;5073118;28;20631;-61
2023/06/25 10:40:34;;;;;;;9.45;6.75;;;;;;;;;;5072946;28;20553;-61
2023/06/25 10:43:00;;;;;;;11.02;7.07;;;;;;;;;;5052652;28;20302;-61
2023/06/25 10:45:25;;;;;;;9.60;7.05;;;;;;;;;;5052709;28;20227;-61
2023/06/25 10:48:05;;;;;;;10.50;8.02;;;;;;;;;;5053233;28;20633;-61
2023/06/25 10:50:32;;;;;;;10.00;7.57;;;;;;;;;;5053465;28;20218;-61
2023/06/25 10:52:57;;;;;;;9.55;7.57;;;;;;;;;;5055426;28;20302;-61
2023/06/25 10:55:23;;;;;;;8.88;6.70;;;;;;;;;;5058125;28;20285;-61
2023/06/25 10:57:48;;;;;;;8.45;6.78;;;;;;;;;;5065572;28;20211;-61
2023/06/25 11:00:14;;;;;;;10.63;6.82;;;;;;;;;;5061204;28;20215;-61
2023/06/25 11:02:39;;;;;;;9.23;6.40;;;;;;;;;;5063534;28;20215;-61
2023/06/25 11:05:05;;;;;;;6.82;6.13;;;;;;;;;;5059951;28;20305;-61
2023/06/25 11:07:30;;;;;;;7.07;5.28;;;;;;;;;;5063553;28;20242;-61
2023/06/25 11:09:56;;;;;;;6.63;5.20;;;;;;;;;;5063464;28;20289;-60
2023/06/25 11:12:21;;;;;;;7.25;5.13;;;;;;;;;;5054300;28;20580;-62
2023/06/25 11:14:46;;;;;;;7.43;5.20;;;;;;;;;;5056490;28;20264;-62
2023/06/25 11:17:15;;;;;;;7.57;5.90;;;;;;;;;;5071761;28;20207;-62
2023/06/25 11:19:40;;;;;;;9.30;5.55;;;;;;;;;;5072913;28;20245;-62
2023/06/25 11:22:07;;;;;;;9.35;5.20;;;;;;;;;;5072081;28;20241;-61
2023/06/25 11:24:34;;;;;;;5.95;5.20;;;;;;;;;;5071945;28;20305;-61
2023/06/25 11:27:00;;;;;;;7.82;5.72;;;;;;;;;;5072770;28;20233;-61
2023/06/25 11:29:33;;;;;;;7.88;4.80;;;;;;;;;;5072289;28;20206;-62
2023/06/25 11:31:58;;;;;;;7.63;5.25;;;;;;;;;;5068257;28;20317;-62
2023/06/25 11:34:24;;;;;;;7.07;4.70;;;;;;;;;;5060711;28;20310;-62
2023/06/25 11:36:49;;;;;;;9.50;4.72;;;;;;;;;;5058913;28;20207;-61
2023/06/25 11:39:15;;;;;;;7.57;4.50;;;;;;;;;;5058140;28;20685;-61
2023/06/25 11:41:40;;;;;;;7.85;4.78;;;;;;;;;;5071460;28;20207;-61
2023/06/25 11:44:20;;;;;;;5.38;4.70;;;;;;;;;;5061261;28;20221;-61
2023/06/25 11:46:49;;;;;;;6.32;4.70;;;;;;;;;;5067783;28;20225;-62
2023/06/25 11:49:14;;;;;;;7.00;4.72;;;;;;;;;;5071565;28;20221;-62
2023/06/25 11:51:39;;;;;;;6.00;4.70;;;;;;;;;;5071780;28;20214;-61
2023/06/25 11:54:05;;;;;;;6.00;4.43;;;;;;;;;;5070966;28;20211;-62
2023/06/25 11:56:30;;;;;;;5.88;4.50;;;;;;;;;;5057163;28;20215;-61
2023/06/25 11:58:56;;;;;;;8.38;4.90;;;;;;;;;;5052453;28;20292;-61
2023/06/25 12:01:21;;;;;;;7.93;4.65;;;;;;;;;;5050868;28;20294;-61
2023/06/25 12:03:46;;;;;;;6.95;4.72;;;;;;;;;;5052068;28;20230;-62
2023/06/25 12:06:11;;;;;;;6.10;4.30;;;;;;;;;;5051480;28;20310;-62
2023/06/25 12:08:38;;;;;;;5.93;4.80;;;;;;;;;;5057128;28;20226;-62
2023/06/25 12:11:03;;;;;;;6.13;4.32;;;;;;;;;;5071481;28;20272;-62
2023/06/25 12:13:29;;;;;;;8.00;4.75;;;;;;;;;;5071542;28;20226;-61
2023/06/25 12:15:54;;;;;;;8.63;4.82;;;;;;;;;;5058707;28;20218;-61
2023/06/25 12:18:22;;;;;;;7.22;4.40;;;;;;;;;;5051574;28;20761;-61
2023/06/25 12:20:47;;;;;;;5.70;4.45;;;;;;;;;;5051240;28;20218;-61
2023/06/25 12:23:12;;;;;;;7.40;4.70;;;;;;;;;;5051302;28;20239;-61
2023/06/25 12:25:39;;;;;;;5.90;4.72;;;;;;;;;;5051707;28;20223;-61
2023/06/25 12:28:04;;;;;;;7.78;4.50;;;;;;;;;;5050836;28;20214;-62
2023/06/25 12:30:30;;;;;;;5.57;4.47;;;;;;;;;;5051718;28;20585;-62
2023/06/25 12:32:55;;;;;;;6.30;4.20;;;;;;;;;;5052043;28;20215;-62
2023/06/25 12:35:21;;;;;;;8.65;4.18;;;;;;;;;;5050741;28;20207;-62
2023/06/25 12:37:47;;;;;;;6.65;4.07;;;;;;;;;;5051731;28;20341;-62
2023/06/25 12:40:12;;;;;;;6.22;4.10;;;;;;;;;;5051456;28;20633;-62
2023/06/25 12:42:38;;;;;;;6.90;4.03;;;;;;;;;;5053580;28;20301;-62
2023/06/25 12:45:03;;;;;;;5.72;4.63;;;;;;;;;;5053480;28;20227;-62
2023/06/25 12:47:28;;;;;;;8.35;4.55;;;;;;;;;;5071718;28;20640;-61
2023/06/25 12:49:54;;;;;;;6.45;4.63;;;;;;;;;;5070982;28;20738;-61
2023/06/25 12:52:19;;;;;;;7.78;4.50;;;;;;;;;;5070998;28;20230;-61
2023/06/25 12:54:44;;;;;;;6.32;4.50;;;;;;;;;;5070838;28;20623;-61
2023/06/25 12:57:10;;;;;;;5.50;4.30;;;;;;;;;;5050387;28;20238;-61
2023/06/25 12:59:35;;;;;;;7.00;4.55;;;;;;;;;;5055755;28;20218;-61
2023/06/25 13:02:00;;;;;;;6.65;5.00;;;;;;;;;;5054794;28;20215;-61
2023/06/25 13:04:26;;;;;;;6.38;4.47;;;;;;;;;;5054337;28;20318;-61
2023/06/25 13:06:51;;;;;;;5.93;4.57;;;;;;;;;;5055342;28;20211;-61
2023/06/25 13:09:16;;;;;;;6.90;4.10;;;;;;;;;;5048168;28;20210;-61
2023/06/25 13:11:42;;;;;;;6.55;3.97;;;;;;;;;;5074341;28;20214;-61
2023/06/25 13:14:07;;;;;;;6.95;4.70;;;;;;;;;;5074864;28;20211;-61
2023/06/25 13:16:32;;;;;;;7.22;4.32;;;;;;;;;;5056686;28;20278;-61
2023/06/25 13:18:58;;;;;;;7.50;4.78;;;;;;;;;;5054458;28;20218;-61
2023/06/25 13:21:23;;;;;;;6.28;4.30;;;;;;;;;;5054435;28;20259;-61
2023/06/25 13:23:48;;;;;;;7.10;4.43;;;;;;;;;;5054559;28;20678;-61
2023/06/25 13:26:14;;;;;;;5.78;4.30;;;;;;;;;;5054285;28;20233;-61
2023/06/25 13:28:39;;;;;;;5.18;4.50;;;;;;;;;;5055240;28;20215;-61
2023/06/25 13:31:04;;;;;;;7.07;4.93;;;;;;;;;;5053739;28;20290;-61
2023/06/25 13:33:30;;;;;;;9.63;4.65;;;;;;;;;;5054869;28;20211;-61
2023/06/25 13:35:55;;;;;;;7.95;4.70;;;;;;;;;;5054729;28;20290;-61
2023/06/25 13:38:21;;;;;;;5.75;4.43;;;;;;;;;;5053543;28;20214;-61
2023/06/25 13:40:47;;;;;;;5.95;4.40;;;;;;;;;;5054840;28;20210;-61
2023/06/25 13:43:12;;;;;;;9.75;4.65;;;;;;;;;;5061615;28;20725;-61
2023/06/25 13:45:37;;;;;;;7.05;4.75;;;;;;;;;;5073984;28;20585;-61
2023/06/25 13:48:03;;;;;;;6.68;4.65;;;;;;;;;;5074029;28;20239;-61
2023/06/25 13:50:28;;;;;;;6.45;4.88;;;;;;;;;;5074767;28;20210;-61
2023/06/25 13:52:53;;;;;;;6.15;4.20;;;;;;;;;;5073672;28;20206;-61
2023/06/25 13:55:19;;;;;;;6.88;4.70;;;;;;;;;;5068419;28;20211;-61
2023/06/25 13:57:44;;;;;;;6.50;4.43;;;;;;;;;;5054479;28;20215;-61
2023/06/25 14:00:10;;;;;;;5.57;4.53;;;;;;;;;;5053266;28;20223;-61
2023/06/25 14:02:35;;;;;;;6.75;4.57;;;;;;;;;;5054158;28;20238;-61
2023/06/25 14:05:00;;;;;;;7.50;4.82;;;;;;;;;;5053899;28;20227;-61
2023/06/25 14:07:26;;;;;;;6.32;4.43;;;;;;;;;;5053303;28;20727;-61
2023/06/25 14:09:52;;;;;;;7.28;4.60;;;;;;;;;;5069652;28;20678;-61
2023/06/25 14:12:17;;;;;;;6.60;4.78;;;;;;;;;;5073692;28;20297;-61
2023/06/25 14:14:43;;;;;;;6.85;4.50;;;;;;;;;;5070171;28;20337;-61
2023/06/25 14:17:08;;;;;;;7.68;4.55;;;;;;;;;;5053583;28;20222;-61
2023/06/25 14:19:33;;;;;;;7.25;4.47;;;;;;;;;;5053959;28;20202;-61